createdAt,value
2017-11-17T04:39:07.480Z,90.73
2017-11-17T04:41:39.357Z,78.60
2017-11-17T04:44:11.240Z,76.73
2017-11-17T04:46:43.116Z,73.97
2017-11-17T04:49:15.802Z,79.47
2017-11-17T04:51:48.432Z,65.03
2017-11-17T04:54:20.661Z,75.70
2017-11-17T04:56:52.540Z,75.67
2017-11-17T04:59:24.443Z,56.87
2017-11-17T05:01:56.317Z,58.83
2017-11-17T05:04:28.972Z,63.87
2017-11-17T05:07:01.808Z,70.77
2017-11-17T05:09:33.754Z,64.40
2017-11-17T05:12:06.399Z,66.03
2017-11-17T05:14:38.281Z,59.47
2017-11-17T05:17:10.928Z,73.03
2017-11-17T05:19:42.813Z,66.23
2017-11-17T05:22:15.446Z,75.97
2017-11-17T05:24:47.357Z,68.87
2017-11-17T05:27:19.991Z,70.13
2017-11-17T05:29:51.876Z,61.00
2017-11-17T05:32:23.754Z,66.57
2017-11-17T05:34:56.435Z,80.97
2017-11-17T05:37:29.079Z,66.53
2017-11-17T05:40:00.997Z,65.57
2017-11-17T05:42:32.869Z,75.37
2017-11-17T05:45:04.785Z,69.03
2017-11-17T05:47:37.429Z,66.73
2017-11-17T05:50:09.309Z,56.57
2017-11-17T05:52:41.215Z,73.50
2017-11-17T05:55:13.110Z,71.30
2017-11-17T05:57:44.986Z,62.53
2017-11-17T06:00:16.889Z,73.47
2017-11-17T06:02:48.758Z,66.17
2017-11-17T06:05:20.649Z,83.10
2017-11-17T06:07:52.520Z,69.17
2017-11-17T06:10:24.433Z,67.90
2017-11-17T06:12:56.305Z,69.97
2017-11-17T06:15:28.192Z,80.00
2017-11-17T06:18:00.065Z,73.63
2017-11-17T06:20:31.954Z,74.07
2017-11-17T06:23:04.592Z,79.77
2017-11-17T06:25:36.489Z,73.67
2017-11-17T06:28:09.122Z,73.83
2017-11-17T06:30:41.038Z,73.10
2017-11-17T06:33:13.673Z,81.97
2017-11-17T06:35:45.578Z,78.27
2017-11-17T06:38:18.223Z,75.77
2017-11-17T06:40:50.128Z,82.37
2017-11-17T06:43:22.006Z,73.90
2017-11-17T06:45:53.914Z,80.60
2017-11-17T06:48:25.781Z,66.63
2017-11-17T06:50:58.453Z,69.60
2017-11-17T06:53:30.325Z,73.93
2017-11-17T06:56:02.980Z,54.47
2017-11-17T06:58:36.462Z,67.07
2017-11-17T07:01:08.357Z,56.00
2017-11-17T07:03:40.994Z,52.43
2017-11-17T07:06:12.889Z,51.37
2017-11-17T07:08:45.081Z,65.30
2017-11-17T07:11:16.984Z,61.97
2017-11-17T07:13:48.849Z,54.17
2017-11-17T07:16:20.754Z,62.47
2017-11-17T07:18:53.385Z,59.70
2017-11-17T07:21:25.308Z,54.03
2017-11-17T07:23:57.179Z,52.93
2017-11-17T07:26:29.105Z,62.93
2017-11-17T07:29:00.966Z,59.20
2017-11-17T07:31:33.641Z,57.90
2017-11-17T07:34:06.284Z,55.53
2017-11-17T07:36:38.191Z,62.83
2017-11-17T07:39:10.827Z,66.50
2017-11-17T07:41:42.720Z,59.97
2017-11-17T07:44:15.357Z,55.60
2017-11-17T07:46:47.260Z,62.43
2017-11-17T07:49:19.897Z,68.97
2017-11-17T07:51:51.802Z,63.47
2017-11-17T07:54:24.430Z,57.60
2017-11-17T07:56:56.325Z,64.83
2017-11-17T07:59:28.964Z,73.47
2017-11-17T08:02:00.841Z,61.80
2017-11-17T08:04:32.709Z,59.70
2017-11-17T08:07:04.612Z,63.87
2017-11-17T08:09:36.484Z,68.40
2017-11-17T08:12:08.369Z,61.70
2017-11-17T08:14:40.256Z,62.10
2017-11-17T08:17:24.096Z,62.17
2017-11-17T08:19:55.969Z,66.83
2017-11-17T08:22:28.616Z,53.90
2017-11-17T08:25:00.485Z,57.57
2017-11-17T08:27:32.387Z,44.23
2017-11-17T08:30:04.253Z,48.60
2017-11-17T08:32:36.141Z,47.00
2017-11-17T08:35:08.020Z,50.83
2017-11-17T08:37:39.929Z,43.43
2017-11-17T08:40:11.807Z,42.33
2017-11-17T08:42:43.709Z,46.17
2017-11-17T08:45:15.581Z,41.40
2017-11-17T08:47:47.493Z,41.50
2017-11-17T08:50:19.366Z,44.43
2017-11-17T08:52:51.273Z,49.10
2017-11-17T08:55:23.910Z,46.53
2017-11-17T08:57:55.825Z,49.40
2017-11-17T09:00:27.701Z,53.53
2017-11-17T09:02:59.620Z,45.87
2017-11-17T09:05:31.508Z,44.70
2017-11-17T09:08:03.404Z,48.67
2017-11-17T09:10:35.273Z,50.73
2017-11-17T09:13:07.218Z,42.33
2017-11-17T09:15:39.089Z,53.87
2017-11-17T09:18:11.001Z,49.03
2017-11-17T09:20:43.635Z,39.87
2017-11-17T09:23:15.520Z,42.23
2017-11-17T09:25:47.392Z,45.03
2017-11-17T09:28:20.062Z,42.60
2017-11-17T09:30:52.702Z,46.73
2017-11-17T09:33:24.608Z,47.17
2017-11-17T09:35:57.246Z,51.63
2017-11-17T09:38:29.129Z,45.07
2017-11-17T09:41:01.007Z,41.37
2017-11-17T09:43:32.937Z,41.40
2017-11-17T09:46:04.821Z,42.10
2017-11-17T09:48:36.730Z,40.13
2017-11-17T09:51:08.599Z,51.37
2017-11-17T09:53:40.499Z,45.33
2017-11-17T09:56:12.372Z,45.00
2017-11-17T09:58:45.026Z,42.63
2017-11-17T10:01:16.893Z,46.90
2017-11-17T10:03:48.798Z,38.40
2017-11-17T10:06:20.668Z,43.83
2017-11-17T10:08:52.574Z,35.53
2017-11-17T10:11:24.495Z,31.30
2017-11-17T10:13:56.477Z,37.33
2017-11-17T10:16:28.355Z,42.37
2017-11-17T10:19:00.242Z,39.07
2017-11-17T10:21:32.883Z,37.33
2017-11-17T10:24:04.886Z,36.43
2017-11-17T10:26:37.058Z,36.93
2017-11-17T10:29:08.969Z,36.27
2017-11-17T10:31:40.842Z,38.30
2017-11-17T10:34:12.749Z,33.13
2017-11-17T10:36:44.632Z,33.27
2017-11-17T10:39:16.522Z,29.47
2017-11-17T10:41:48.392Z,34.37
2017-11-17T10:44:20.279Z,36.20
2017-11-17T10:46:52.145Z,33.97
2017-11-17T10:49:24.058Z,32.67
2017-11-17T10:51:55.930Z,34.40
2017-11-17T10:54:27.835Z,36.73
2017-11-17T10:56:59.726Z,31.73
2017-11-17T10:59:31.641Z,37.43
2017-11-17T11:02:03.522Z,30.17
2017-11-17T11:04:35.417Z,36.90
2017-11-17T11:07:08.268Z,31.47
2017-11-17T11:09:40.160Z,26.87
2017-11-17T11:12:12.064Z,29.80
2017-11-17T11:14:44.755Z,29.17
2017-11-17T11:17:16.625Z,30.10
2017-11-17T11:19:48.529Z,32.70
2017-11-17T11:22:20.413Z,28.73
2017-11-17T11:24:53.093Z,26.93
2017-11-17T11:27:25.729Z,29.87
2017-11-17T11:29:57.630Z,29.40
2017-11-17T11:32:30.269Z,28.83
2017-11-17T11:35:02.168Z,27.73
2017-11-17T11:37:34.804Z,23.43
2017-11-17T11:40:07.032Z,25.67
2017-11-17T11:42:38.913Z,33.80
2017-11-17T11:45:10.797Z,19.17
2017-11-17T11:47:42.677Z,24.63
2017-11-17T11:50:14.602Z,18.77
2017-11-17T11:52:46.497Z,24.50
2017-11-17T11:55:18.404Z,24.10
2017-11-17T11:57:50.274Z,20.57
2017-11-17T12:00:22.189Z,20.27
2017-11-17T12:02:54.833Z,19.90
2017-11-17T12:05:26.733Z,21.90
2017-11-17T12:07:59.381Z,18.63
2017-11-17T12:10:31.288Z,18.57
2017-11-17T12:13:03.157Z,25.63
2017-11-17T12:15:35.040Z,20.60
2017-11-17T12:18:06.917Z,15.93
2017-11-17T12:20:38.822Z,17.27
2017-11-17T12:23:10.694Z,20.80
2017-11-17T12:25:42.620Z,20.17
2017-11-17T12:28:14.513Z,18.17
2017-11-17T12:30:46.399Z,8.80
2017-11-17T12:33:18.289Z,13.47
2017-11-17T12:35:50.197Z,20.37
2017-11-17T12:38:22.077Z,10.87
2017-11-17T12:40:53.971Z,13.77
2017-11-17T12:43:25.847Z,18.43
2017-11-17T12:45:58.749Z,13.20
2017-11-17T12:48:30.638Z,18.90
2017-11-17T12:51:02.550Z,12.32
2017-11-17T12:53:35.193Z,10.73
2017-11-17T12:56:07.101Z,17.17
2017-11-17T12:58:39.737Z,19.27
2017-11-17T13:01:11.641Z,11.80
2017-11-17T13:03:44.288Z,13.20
2017-11-17T13:06:16.237Z,17.57
2017-11-17T13:08:48.109Z,9.93
2017-11-17T13:11:20.010Z,9.80
2017-11-17T13:13:51.873Z,9.33
2017-11-17T13:16:23.779Z,11.60
2017-11-17T13:18:55.641Z,12.80
2017-11-17T13:21:27.545Z,10.20
2017-11-17T13:24:00.177Z,9.03
2017-11-17T13:26:32.098Z,8.57
2017-11-17T13:29:03.969Z,10.43
2017-11-17T13:31:35.878Z,11.27
2017-11-17T13:34:07.752Z,10.93
2017-11-17T13:36:40.407Z,10.03
2017-11-17T13:39:12.273Z,9.27
2017-11-17T13:41:44.185Z,11.80
2017-11-17T13:44:16.057Z,13.60
2017-11-17T13:46:47.933Z,7.53
2017-11-17T13:49:19.804Z,13.50
2017-11-17T13:51:52.014Z,12.13
2017-11-17T13:54:23.898Z,11.23
2017-11-17T13:56:55.800Z,13.17
2017-11-17T13:59:28.460Z,9.27
2017-11-17T14:02:00.386Z,12.37
2017-11-17T14:04:32.260Z,10.23
2017-11-17T14:07:04.166Z,14.30
2017-11-17T14:09:36.041Z,12.00
2017-11-17T14:12:08.697Z,14.47
2017-11-17T14:14:40.599Z,13.17
2017-11-17T14:17:12.505Z,12.20
2017-11-17T14:19:44.372Z,11.77
2017-11-17T14:22:16.260Z,12.50
2017-11-17T14:24:48.915Z,7.70
2017-11-17T14:27:20.815Z,10.00
2017-11-17T14:29:53.441Z,10.17
2017-11-17T14:32:25.346Z,7.23
2017-11-17T14:34:57.996Z,12.20
2017-11-17T14:37:29.927Z,10.63
2017-11-17T14:40:01.780Z,13.03
2017-11-17T14:42:33.672Z,10.60
2017-11-17T14:45:05.537Z,17.47
2017-11-17T14:47:37.440Z,15.27
2017-11-17T14:50:09.312Z,14.27
2017-11-17T14:52:41.213Z,19.67
2017-11-17T14:55:13.088Z,11.83
2017-11-17T14:57:45.760Z,14.53
2017-11-17T15:00:17.625Z,9.80
2017-11-17T15:02:49.509Z,10.90
2017-11-17T15:05:21.380Z,14.37
2017-11-17T15:07:53.294Z,19.30
2017-11-17T15:10:25.158Z,18.13
2017-11-17T15:12:57.060Z,10.37
2017-11-17T15:15:28.951Z,11.40
2017-11-17T15:18:00.850Z,13.53
2017-11-17T15:20:32.726Z,17.63
2017-11-17T15:23:05.392Z,19.73
2017-11-17T15:25:38.033Z,19.13
2017-11-17T15:28:09.935Z,19.27
2017-11-17T15:30:42.569Z,16.70
2017-11-17T15:33:14.473Z,14.80
2017-11-17T15:35:47.113Z,19.93
2017-11-17T15:38:19.765Z,25.80
2017-11-17T15:40:51.647Z,17.40
2017-11-17T15:43:23.544Z,14.97
2017-11-17T15:45:56.184Z,24.77
2017-11-17T15:48:28.089Z,17.93
2017-11-17T15:51:00.729Z,22.17
2017-11-17T15:53:32.609Z,24.50
2017-11-17T15:56:04.481Z,25.57
2017-11-17T15:58:37.194Z,18.27
2017-11-17T16:01:09.348Z,21.43
2017-11-17T16:03:41.252Z,14.93
2017-11-17T16:06:13.121Z,16.00
2017-11-17T16:08:45.025Z,21.77
2017-11-17T16:11:16.896Z,22.30
2017-11-17T16:13:48.769Z,19.53
2017-11-17T16:16:20.636Z,14.93
2017-11-17T16:18:52.549Z,17.50
2017-11-17T16:21:25.188Z,15.40
2017-11-17T16:23:57.074Z,14.20
2017-11-17T16:26:28.949Z,20.87
2017-11-17T16:29:01.606Z,15.33
2017-11-17T16:31:33.484Z,19.00
2017-11-17T16:34:06.144Z,18.13
2017-11-17T16:36:38.026Z,11.10
2017-11-17T16:39:10.697Z,12.90
2017-11-17T16:41:43.328Z,14.07
2017-11-17T16:44:15.232Z,17.60
2017-11-17T16:46:47.100Z,15.97
2017-11-17T16:49:19.778Z,19.13
2017-11-17T16:51:52.404Z,14.47
2017-11-17T16:54:24.304Z,18.00
2017-11-17T16:56:56.181Z,15.77
2017-11-17T16:59:28.901Z,13.23
2017-11-17T17:02:00.785Z,25.10
2017-11-17T17:04:32.689Z,12.57
2017-11-17T17:07:05.333Z,11.90
2017-11-17T17:09:37.233Z,19.23
2017-11-17T17:12:09.872Z,14.43
2017-11-17T17:14:41.768Z,12.57
2017-11-17T17:17:13.692Z,15.23
2017-11-17T17:19:45.598Z,14.20
2017-11-17T17:22:17.477Z,13.33
2017-11-17T17:24:49.381Z,17.43
2017-11-17T17:27:21.244Z,15.30
2017-11-17T17:29:53.159Z,14.63
2017-11-17T17:32:25.077Z,21.23
2017-11-17T17:34:57.724Z,22.43
2017-11-17T17:37:29.593Z,17.10
2017-11-17T17:40:01.482Z,21.97
2017-11-17T17:42:34.118Z,22.20
2017-11-17T17:45:06.005Z,25.90
2017-11-17T17:47:37.875Z,30.40
2017-11-17T17:50:09.794Z,18.87
2017-11-17T17:52:41.666Z,23.27
2017-11-17T17:55:13.566Z,22.20
2017-11-17T17:57:46.207Z,25.67
2017-11-17T18:00:18.107Z,25.93
2017-11-17T18:02:49.979Z,33.17
2017-11-17T18:05:21.888Z,33.80
2017-11-17T18:07:53.761Z,45.23
2017-11-17T18:10:25.672Z,50.00
2017-11-17T18:12:57.552Z,32.47
2017-11-17T18:15:29.440Z,39.50
2017-11-17T18:18:01.310Z,27.07
2017-11-17T18:20:33.981Z,35.20
2017-11-17T18:23:05.850Z,27.47
2017-11-17T18:25:38.522Z,28.53
2017-11-17T18:28:10.435Z,26.10
2017-11-17T18:30:43.074Z,26.47
2017-11-17T18:33:15.713Z,24.50
2017-11-17T18:35:47.600Z,27.20
2017-11-17T18:38:20.255Z,26.57
2017-11-17T18:40:52.140Z,30.17
2017-11-17T18:43:24.009Z,25.23
2017-11-17T18:45:56.681Z,25.33
2017-11-17T18:48:28.587Z,30.30
2017-11-17T18:51:01.230Z,32.97
2017-11-17T18:53:33.873Z,30.33
2017-11-17T18:56:05.784Z,32.90
2017-11-17T18:58:37.656Z,34.77
2017-11-17T19:01:09.570Z,32.13
2017-11-17T19:03:41.426Z,43.57
2017-11-17T19:06:13.309Z,34.57
2017-11-17T19:08:45.944Z,29.63
2017-11-17T19:11:18.618Z,25.00
2017-11-17T19:13:50.527Z,26.23
2017-11-17T19:16:22.396Z,27.47
2017-11-17T19:18:56.327Z,27.53
2017-11-17T19:21:28.252Z,28.73
2017-11-17T19:24:00.888Z,21.90
2017-11-17T19:26:32.785Z,21.53
2017-11-17T19:29:05.421Z,22.40
2017-11-17T19:31:37.331Z,23.53
2017-11-17T19:34:09.957Z,25.53
2017-11-17T19:36:41.873Z,18.47
2017-11-17T19:39:14.514Z,27.73
2017-11-17T19:41:46.426Z,29.63
2017-11-17T19:44:18.297Z,20.37
2017-11-17T19:46:50.195Z,21.70
2017-11-17T19:49:22.082Z,22.77
2017-11-17T19:51:54.758Z,32.57
2017-11-17T19:54:26.629Z,27.73
2017-11-17T19:56:59.284Z,33.07
2017-11-17T19:59:31.164Z,30.50
2017-11-17T20:02:03.838Z,28.67
2017-11-17T20:04:36.636Z,27.63
2017-11-17T20:07:08.546Z,32.33
2017-11-17T20:09:40.416Z,37.33
2017-11-17T20:12:12.320Z,21.63
2017-11-17T20:14:44.212Z,27.03
2017-11-17T20:17:16.121Z,32.07
2017-11-17T20:19:48.762Z,35.30
2017-11-17T20:22:20.677Z,29.73
2017-11-17T20:24:52.552Z,25.17
2017-11-17T20:27:24.449Z,21.50
2017-11-17T20:29:56.320Z,22.60
2017-11-17T20:32:28.216Z,22.17
2017-11-17T20:35:00.137Z,16.77
2017-11-17T20:37:32.049Z,17.00
2017-11-17T20:40:03.930Z,23.63
2017-11-17T20:42:35.830Z,23.53
2017-11-17T20:45:07.694Z,20.37
2017-11-17T20:47:39.610Z,22.60
2017-11-17T20:50:11.476Z,22.23
2017-11-17T20:52:43.372Z,15.63
2017-11-17T20:55:15.237Z,24.67
2017-11-17T20:57:47.893Z,24.70
2017-11-17T21:00:19.772Z,21.30
2017-11-17T21:02:51.707Z,19.53
2017-11-17T21:05:23.588Z,23.83
2017-11-17T21:07:55.456Z,22.90
2017-11-17T21:10:28.097Z,23.03
2017-11-17T21:13:00.002Z,18.77
2017-11-17T21:15:32.646Z,23.43
2017-11-17T21:18:04.535Z,19.33
2017-11-17T21:20:36.400Z,18.47
2017-11-17T21:23:09.073Z,33.63
2017-11-17T21:25:41.721Z,24.20
2017-11-17T21:28:13.757Z,32.73
2017-11-17T21:30:45.638Z,25.00
2017-11-17T21:33:17.539Z,23.43
2017-11-17T21:35:50.202Z,30.47
2017-11-17T21:38:22.101Z,26.27
2017-11-17T21:40:53.970Z,27.77
2017-11-17T21:43:25.886Z,21.87
2017-11-17T21:45:57.752Z,24.57
2017-11-17T21:48:30.445Z,20.87
2017-11-17T21:51:03.076Z,16.53
2017-11-17T21:53:34.952Z,26.07
2017-11-17T21:56:06.830Z,21.27
2017-11-17T21:58:38.737Z,17.43
2017-11-17T22:01:10.609Z,21.93
2017-11-17T22:03:42.512Z,21.43
